sensor_id;sensor_type;location;lat;lon;timestamp;P1;durP1;ratioP1;P2;durP2;ratioP2
5121;SDS011;2563;52.242;7.956;2024-02-28T00:01:15;36.70;;;11.90;;
5121;SDS011;2563;52.242;7.956;2024-02-28T00:03:41;37.30;;;12.70;;
5121;SDS011;2563;52.242;7.956;2024-02-28T00:06:07;39.10;;;14.73;;
5121;SDS011;2563;52.242;7.956;2024-02-28T00:08:32;38.97;;;12.60;;
5121;SDS011;2563;52.242;7.956;2024-02-28T00:10:57;39.43;;;12.50;;
5121;SDS011;2563;52.242;7.956;2024-02-28T00:13:23;43.30;;;12.90;;
5121;SDS011;2563;52.242;7.956;2024-02-28T00:15:49;36.67;;;12.50;;
5121;SDS011;2563;52.242;7.956;2024-02-28T00:18:15;37.43;;;12.23;;
5121;SDS011;2563;52.242;7.956;2024-02-28T00:20:40;38.90;;;13.43;;
5121;SDS011;2563;52.242;7.956;2024-02-28T00:23:06;37.00;;;14.27;;
5121;SDS011;2563;52.242;7.956;2024-02-28T00:25:31;32.80;;;12.97;;
5121;SDS011;2563;52.242;7.956;2024-02-28T00:27:56;34.23;;;12.60;;
5121;SDS011;2563;52.242;7.956;2024-02-28T00:30:22;33.03;;;12.40;;
5121;SDS011;2563;52.242;7.956;2024-02-28T00:32:47;38.57;;;12.73;;
5121;SDS011;2563;52.242;7.956;2024-02-28T00:35:13;47.57;;;14.53;;
5121;SDS011;2563;52.242;7.956;2024-02-28T00:37:38;39.23;;;13.60;;
5121;SDS011;2563;52.242;7.956;2024-02-28T00:40:04;35.00;;;12.77;;
5121;SDS011;2563;52.242;7.956;2024-02-28T00:42:29;38.47;;;13.13;;
5121;SDS011;2563;52.242;7.956;2024-02-28T00:44:55;36.07;;;14.37;;
5121;SDS011;2563;52.242;7.956;2024-02-28T00:47:21;36.50;;;13.07;;
5121;SDS011;2563;52.242;7.956;2024-02-28T00:49:46;44.00;;;13.00;;
5121;SDS011;2563;52.242;7.956;2024-02-28T00:52:11;38.77;;;13.67;;
5121;SDS011;2563;52.242;7.956;2024-02-28T00:54:37;43.97;;;14.70;;
5121;SDS011;2563;52.242;7.956;2024-02-28T00:57:02;34.60;;;13.07;;
5121;SDS011;2563;52.242;7.956;2024-02-28T00:59:28;40.97;;;14.23;;
5121;SDS011;2563;52.242;7.956;2024-02-28T01:01:53;38.57;;;13.37;;
5121;SDS011;2563;52.242;7.956;2024-02-28T01:04:18;36.87;;;13.90;;
5121;SDS011;2563;52.242;7.956;2024-02-28T01:06:44;37.00;;;13.60;;
5121;SDS011;2563;52.242;7.956;2024-02-28T01:09:09;38.50;;;14.23;;
5121;SDS011;2563;52.242;7.956;2024-02-28T01:11:35;43.10;;;13.73;;
5121;SDS011;2563;52.242;7.956;2024-02-28T01:14:00;43.20;;;14.67;;
5121;SDS011;2563;52.242;7.956;2024-02-28T01:16:25;36.53;;;13.90;;
5121;SDS011;2563;52.242;7.956;2024-02-28T01:18:51;36.10;;;14.23;;
5121;SDS011;2563;52.242;7.956;2024-02-28T01:21:16;38.90;;;13.97;;
5121;SDS011;2563;52.242;7.956;2024-02-28T01:23:42;48.80;;;15.40;;
5121;SDS011;2563;52.242;7.956;2024-02-28T01:26:07;39.60;;;14.60;;
5121;SDS011;2563;52.242;7.956;2024-02-28T01:28:32;57.10;;;17.70;;
5121;SDS011;2563;52.242;7.956;2024-02-28T01:30:58;51.10;;;14.90;;
5121;SDS011;2563;52.242;7.956;2024-02-28T01:33:25;61.50;;;16.63;;
5121;SDS011;2563;52.242;7.956;2024-02-28T01:35:50;95.57;;;15.47;;
5121;SDS011;2563;52.242;7.956;2024-02-28T01:38:16;57.20;;;15.90;;
5121;SDS011;2563;52.242;7.956;2024-02-28T01:40:45;60.93;;;17.53;;
5121;SDS011;2563;52.242;7.956;2024-02-28T01:43:11;48.03;;;13.80;;
5121;SDS011;2563;52.242;7.956;2024-02-28T01:45:37;60.90;;;16.40;;
5121;SDS011;2563;52.242;7.956;2024-02-28T01:48:03;65.67;;;15.80;;
5121;SDS011;2563;52.242;7.956;2024-02-28T01:50:32;55.20;;;16.47;;
5121;SDS011;2563;52.242;7.956;2024-02-28T01:52:58;85.40;;;14.73;;
5121;SDS011;2563;52.242;7.956;2024-02-28T01:55:24;57.33;;;13.43;;
5121;SDS011;2563;52.242;7.956;2024-02-28T01:57:51;51.97;;;13.17;;
5121;SDS011;2563;52.242;7.956;2024-02-28T02:00:17;43.87;;;13.50;;
5121;SDS011;2563;52.242;7.956;2024-02-28T02:02:44;53.93;;;14.77;;
5121;SDS011;2563;52.242;7.956;2024-02-28T02:05:10;55.70;;;14.63;;
5121;SDS011;2563;52.242;7.956;2024-02-28T02:07:35;65.43;;;14.27;;
5121;SDS011;2563;52.242;7.956;2024-02-28T02:10:01;44.27;;;13.83;;
5121;SDS011;2563;52.242;7.956;2024-02-28T02:12:27;59.37;;;13.00;;
5121;SDS011;2563;52.242;7.956;2024-02-28T02:14:52;54.00;;;12.83;;
5121;SDS011;2563;52.242;7.956;2024-02-28T02:17:18;45.80;;;12.80;;
5121;SDS011;2563;52.242;7.956;2024-02-28T02:19:43;46.37;;;12.60;;
5121;SDS011;2563;52.242;7.956;2024-02-28T02:22:09;39.57;;;11.70;;
5121;SDS011;2563;52.242;7.956;2024-02-28T02:24:38;45.60;;;13.63;;
5121;SDS011;2563;52.242;7.956;2024-02-28T02:27:04;34.50;;;13.00;;
5121;SDS011;2563;52.242;7.956;2024-02-28T02:29:30;51.53;;;13.60;;
5121;SDS011;2563;52.242;7.956;2024-02-28T02:31:56;55.83;;;13.83;;
5121;SDS011;2563;52.242;7.956;2024-02-28T02:34:21;57.10;;;13.43;;
5121;SDS011;2563;52.242;7.956;2024-02-28T02:36:47;49.53;;;12.87;;
5121;SDS011;2563;52.242;7.956;2024-02-28T02:39:12;48.53;;;11.60;;
5121;SDS011;2563;52.242;7.956;2024-02-28T02:41:37;39.93;;;12.07;;
5121;SDS011;2563;52.242;7.956;2024-02-28T02:44:03;32.73;;;11.80;;
5121;SDS011;2563;52.242;7.956;2024-02-28T02:46:28;39.90;;;12.43;;
5121;SDS011;2563;52.242;7.956;2024-02-28T02:48:54;37.13;;;12.23;;
5121;SDS011;2563;52.242;7.956;2024-02-28T02:51:19;33.87;;;12.60;;
5121;SDS011;2563;52.242;7.956;2024-02-28T02:53:45;48.27;;;12.83;;
5121;SDS011;2563;52.242;7.956;2024-02-28T02:56:10;35.63;;;12.60;;
5121;SDS011;2563;52.242;7.956;2024-02-28T02:58:36;44.63;;;13.27;;
5121;SDS011;2563;52.242;7.956;2024-02-28T03:01:01;29.00;;;11.07;;
5121;SDS011;2563;52.242;7.956;2024-02-28T03:03:26;36.13;;;11.20;;
5121;SDS011;2563;52.242;7.956;2024-02-28T03:05:52;26.73;;;9.93;;
5121;SDS011;2563;52.242;7.956;2024-02-28T03:08:17;31.57;;;10.90;;
5121;SDS011;2563;52.242;7.956;2024-02-28T03:10:42;30.50;;;10.60;;
5121;SDS011;2563;52.242;7.956;2024-02-28T03:13:08;37.93;;;11.30;;
5121;SDS011;2563;52.242;7.956;2024-02-28T03:15:33;34.17;;;11.97;;
5121;SDS011;2563;52.242;7.956;2024-02-28T03:17:59;39.80;;;11.90;;
5121;SDS011;2563;52.242;7.956;2024-02-28T03:20:24;40.10;;;13.80;;
5121;SDS011;2563;52.242;7.956;2024-02-28T03:22:50;42.27;;;12.80;;
5121;SDS011;2563;52.242;7.956;2024-02-28T03:25:16;42.73;;;13.10;;
5121;SDS011;2563;52.242;7.956;2024-02-28T03:27:41;38.87;;;13.30;;
5121;SDS011;2563;52.242;7.956;2024-02-28T03:30:07;31.50;;;12.23;;
5121;SDS011;2563;52.242;7.956;2024-02-28T03:32:32;34.10;;;11.93;;
5121;SDS011;2563;52.242;7.956;2024-02-28T03:34:58;35.90;;;10.63;;
5121;SDS011;2563;52.242;7.956;2024-02-28T03:37:23;40.57;;;11.70;;
5121;SDS011;2563;52.242;7.956;2024-02-28T03:39:48;31.20;;;13.37;;
5121;SDS011;2563;52.242;7.956;2024-02-28T03:42:14;37.63;;;12.87;;
5121;SDS011;2563;52.242;7.956;2024-02-28T03:44:39;35.40;;;12.17;;
5121;SDS011;2563;52.242;7.956;2024-02-28T03:47:04;31.40;;;12.23;;
5121;SDS011;2563;52.242;7.956;2024-02-28T03:49:30;43.20;;;14.27;;
5121;SDS011;2563;52.242;7.956;2024-02-28T03:51:55;42.97;;;14.90;;
5121;SDS011;2563;52.242;7.956;2024-02-28T03:54:21;44.90;;;14.60;;
5121;SDS011;2563;52.242;7.956;2024-02-28T03:56:46;39.33;;;14.10;;
5121;SDS011;2563;52.242;7.956;2024-02-28T03:59:11;50.13;;;15.57;;
5121;SDS011;2563;52.242;7.956;2024-02-28T04:01:36;44.43;;;15.40;;
5121;SDS011;2563;52.242;7.956;2024-02-28T04:04:02;44.10;;;15.67;;
5121;SDS011;2563;52.242;7.956;2024-02-28T04:06:27;61.93;;;14.37;;
5121;SDS011;2563;52.242;7.956;2024-02-28T04:08:53;45.50;;;15.10;;
5121;SDS011;2563;52.242;7.956;2024-02-28T04:11:18;40.20;;;13.87;;
5121;SDS011;2563;52.242;7.956;2024-02-28T04:13:44;55.97;;;14.60;;
5121;SDS011;2563;52.242;7.956;2024-02-28T04:16:10;42.43;;;13.33;;
5121;SDS011;2563;52.242;7.956;2024-02-28T04:18:36;46.60;;;13.30;;
5121;SDS011;2563;52.242;7.956;2024-02-28T04:21:01;31.40;;;12.10;;
5121;SDS011;2563;52.242;7.956;2024-02-28T04:23:27;46.43;;;12.17;;
5121;SDS011;2563;52.242;7.956;2024-02-28T04:25:52;38.63;;;10.83;;
5121;SDS011;2563;52.242;7.956;2024-02-28T04:28:17;28.83;;;10.53;;
5121;SDS011;2563;52.242;7.956;2024-02-28T04:30:43;43.10;;;12.30;;
5121;SDS011;2563;52.242;7.956;2024-02-28T04:33:08;37.70;;;11.07;;
5121;SDS011;2563;52.242;7.956;2024-02-28T04:35:34;38.00;;;11.43;;
5121;SDS011;2563;52.242;7.956;2024-02-28T04:37:59;33.63;;;12.67;;
5121;SDS011;2563;52.242;7.956;2024-02-28T04:40:24;42.47;;;10.47;;
5121;SDS011;2563;52.242;7.956;2024-02-28T04:42:50;34.43;;;9.33;;
5121;SDS011;2563;52.242;7.956;2024-02-28T04:45:15;30.20;;;10.70;;
5121;SDS011;2563;52.242;7.956;2024-02-28T04:47:41;30.13;;;10.97;;
5121;SDS011;2563;52.242;7.956;2024-02-28T04:50:06;30.43;;;10.63;;
5121;SDS011;2563;52.242;7.956;2024-02-28T04:52:32;41.07;;;10.90;;
5121;SDS011;2563;52.242;7.956;2024-02-28T04:54:58;28.40;;;10.40;;
5121;SDS011;2563;52.242;7.956;2024-02-28T04:57:24;27.83;;;8.73;;
5121;SDS011;2563;52.242;7.956;2024-02-28T04:59:49;43.47;;;10.83;;
5121;SDS011;2563;52.242;7.956;2024-02-28T05:02:14;31.93;;;10.20;;
5121;SDS011;2563;52.242;7.956;2024-02-28T05:04:40;38.17;;;11.20;;
5121;SDS011;2563;52.242;7.956;2024-02-28T05:07:05;44.53;;;11.27;;
5121;SDS011;2563;52.242;7.956;2024-02-28T05:09:32;37.63;;;10.80;;
5121;SDS011;2563;52.242;7.956;2024-02-28T05:11:58;51.13;;;11.73;;
5121;SDS011;2563;52.242;7.956;2024-02-28T05:14:23;69.80;;;11.60;;
5121;SDS011;2563;52.242;7.956;2024-02-28T05:16:49;30.63;;;10.30;;
5121;SDS011;2563;52.242;7.956;2024-02-28T05:19:15;36.03;;;11.57;;
5121;SDS011;2563;52.242;7.956;2024-02-28T05:21:43;47.23;;;11.37;;
5121;SDS011;2563;52.242;7.956;2024-02-28T05:24:09;36.13;;;11.27;;
5121;SDS011;2563;52.242;7.956;2024-02-28T05:26:35;54.57;;;11.47;;
5121;SDS011;2563;52.242;7.956;2024-02-28T05:29:01;40.83;;;13.20;;
5121;SDS011;2563;52.242;7.956;2024-02-28T05:31:28;39.33;;;13.00;;
5121;SDS011;2563;52.242;7.956;2024-02-28T05:33:55;48.97;;;13.53;;
5121;SDS011;2563;52.242;7.956;2024-02-28T05:36:24;45.13;;;12.77;;
5121;SDS011;2563;52.242;7.956;2024-02-28T05:38:51;47.90;;;12.73;;
5121;SDS011;2563;52.242;7.956;2024-02-28T05:41:18;51.73;;;14.40;;
5121;SDS011;2563;52.242;7.956;2024-02-28T05:43:44;43.47;;;13.03;;
5121;SDS011;2563;52.242;7.956;2024-02-28T05:46:10;39.10;;;12.10;;
5121;SDS011;2563;52.242;7.956;2024-02-28T05:48:36;40.03;;;13.63;;
5121;SDS011;2563;52.242;7.956;2024-02-28T05:51:02;44.40;;;13.87;;
5121;SDS011;2563;52.242;7.956;2024-02-28T05:53:28;41.83;;;12.83;;
5121;SDS011;2563;52.242;7.956;2024-02-28T05:55:57;41.57;;;11.87;;
5121;SDS011;2563;52.242;7.956;2024-02-28T05:58:23;48.67;;;13.67;;
5121;SDS011;2563;52.242;7.956;2024-02-28T06:00:50;45.07;;;12.83;;
5121;SDS011;2563;52.242;7.956;2024-02-28T06:03:15;46.17;;;13.20;;
5121;SDS011;2563;52.242;7.956;2024-02-28T06:05:41;60.10;;;15.80;;
5121;SDS011;2563;52.242;7.956;2024-02-28T06:08:06;40.60;;;12.73;;
5121;SDS011;2563;52.242;7.956;2024-02-28T06:10:31;35.30;;;12.60;;
5121;SDS011;2563;52.242;7.956;2024-02-28T06:12:57;49.53;;;13.67;;
5121;SDS011;2563;52.242;7.956;2024-02-28T06:15:22;36.00;;;11.80;;
5121;SDS011;2563;52.242;7.956;2024-02-28T06:17:47;33.63;;;12.33;;
5121;SDS011;2563;52.242;7.956;2024-02-28T06:20:13;40.67;;;14.10;;
5121;SDS011;2563;52.242;7.956;2024-02-28T06:22:39;41.83;;;14.40;;
5121;SDS011;2563;52.242;7.956;2024-02-28T06:25:04;42.60;;;12.20;;
5121;SDS011;2563;52.242;7.956;2024-02-28T06:27:32;43.07;;;13.40;;
5121;SDS011;2563;52.242;7.956;2024-02-28T06:29:58;42.73;;;13.00;;
5121;SDS011;2563;52.242;7.956;2024-02-28T06:32:24;46.17;;;13.10;;
5121;SDS011;2563;52.242;7.956;2024-02-28T06:34:50;42.80;;;13.30;;
5121;SDS011;2563;52.242;7.956;2024-02-28T06:37:15;44.50;;;15.27;;
5121;SDS011;2563;52.242;7.956;2024-02-28T06:39:41;59.13;;;13.33;;
5121;SDS011;2563;52.242;7.956;2024-02-28T06:42:06;40.43;;;14.40;;
5121;SDS011;2563;52.242;7.956;2024-02-28T06:44:32;46.33;;;13.03;;
5121;SDS011;2563;52.242;7.956;2024-02-28T06:46:57;44.53;;;14.30;;
5121;SDS011;2563;52.242;7.956;2024-02-28T06:49:23;56.30;;;13.57;;
5121;SDS011;2563;52.242;7.956;2024-02-28T06:51:49;43.67;;;15.00;;
5121;SDS011;2563;52.242;7.956;2024-02-28T06:54:14;41.93;;;14.50;;
5121;SDS011;2563;52.242;7.956;2024-02-28T06:56:40;43.80;;;14.53;;
5121;SDS011;2563;52.242;7.956;2024-02-28T06:59:05;48.07;;;14.20;;
5121;SDS011;2563;52.242;7.956;2024-02-28T07:01:32;36.70;;;11.60;;
5121;SDS011;2563;52.242;7.956;2024-02-28T07:03:57;38.87;;;12.77;;
5121;SDS011;2563;52.242;7.956;2024-02-28T07:06:23;43.47;;;12.13;;
5121;SDS011;2563;52.242;7.956;2024-02-28T07:08:48;30.60;;;13.13;;
5121;SDS011;2563;52.242;7.956;2024-02-28T07:11:13;43.20;;;12.40;;
5121;SDS011;2563;52.242;7.956;2024-02-28T07:13:39;42.00;;;12.90;;
5121;SDS011;2563;52.242;7.956;2024-02-28T07:16:05;37.27;;;13.27;;
5121;SDS011;2563;52.242;7.956;2024-02-28T07:18:31;31.73;;;11.33;;
5121;SDS011;2563;52.242;7.956;2024-02-28T07:20:57;34.83;;;13.00;;
5121;SDS011;2563;52.242;7.956;2024-02-28T07:23:22;31.40;;;12.17;;
5121;SDS011;2563;52.242;7.956;2024-02-28T07:25:47;35.07;;;13.30;;
5121;SDS011;2563;52.242;7.956;2024-02-28T07:28:13;38.60;;;12.67;;
5121;SDS011;2563;52.242;7.956;2024-02-28T07:30:38;35.57;;;12.87;;
5121;SDS011;2563;52.242;7.956;2024-02-28T07:33:05;39.83;;;12.00;;
5121;SDS011;2563;52.242;7.956;2024-02-28T07:35:31;34.30;;;12.93;;
5121;SDS011;2563;52.242;7.956;2024-02-28T07:37:56;36.70;;;13.60;;
5121;SDS011;2563;52.242;7.956;2024-02-28T07:40:21;36.40;;;12.03;;
5121;SDS011;2563;52.242;7.956;2024-02-28T07:42:47;33.57;;;12.63;;
5121;SDS011;2563;52.242;7.956;2024-02-28T07:45:12;36.13;;;12.83;;
5121;SDS011;2563;52.242;7.956;2024-02-28T07:47:38;42.50;;;13.20;;
5121;SDS011;2563;52.242;7.956;2024-02-28T07:50:05;35.87;;;13.67;;
5121;SDS011;2563;52.242;7.956;2024-02-28T07:52:31;39.03;;;15.27;;
5121;SDS011;2563;52.242;7.956;2024-02-28T07:55:00;45.93;;;13.77;;
5121;SDS011;2563;52.242;7.956;2024-02-28T07:57:26;36.27;;;14.00;;
5121;SDS011;2563;52.242;7.956;2024-02-28T07:59:51;42.87;;;12.97;;
5121;SDS011;2563;52.242;7.956;2024-02-28T08:02:17;38.97;;;14.27;;
5121;SDS011;2563;52.242;7.956;2024-02-28T08:04:45;50.37;;;14.97;;
5121;SDS011;2563;52.242;7.956;2024-02-28T08:07:10;41.80;;;15.37;;
5121;SDS011;2563;52.242;7.956;2024-02-28T08:09:35;47.57;;;15.67;;
5121;SDS011;2563;52.242;7.956;2024-02-28T08:12:01;40.63;;;14.13;;
5121;SDS011;2563;52.242;7.956;2024-02-28T08:14:26;43.23;;;14.87;;
5121;SDS011;2563;52.242;7.956;2024-02-28T08:16:52;41.77;;;14.23;;
5121;SDS011;2563;52.242;7.956;2024-02-28T08:19:17;44.53;;;14.47;;
5121;SDS011;2563;52.242;7.956;2024-02-28T08:21:43;44.70;;;14.47;;
5121;SDS011;2563;52.242;7.956;2024-02-28T08:24:08;42.80;;;14.77;;
5121;SDS011;2563;52.242;7.956;2024-02-28T08:26:33;49.67;;;15.67;;
5121;SDS011;2563;52.242;7.956;2024-02-28T08:28:59;44.90;;;14.30;;
5121;SDS011;2563;52.242;7.956;2024-02-28T08:31:24;42.97;;;16.10;;
5121;SDS011;2563;52.242;7.956;2024-02-28T08:33:50;48.67;;;16.97;;
5121;SDS011;2563;52.242;7.956;2024-02-28T08:36:16;46.80;;;14.40;;
5121;SDS011;2563;52.242;7.956;2024-02-28T08:38:41;43.77;;;15.30;;
5121;SDS011;2563;52.242;7.956;2024-02-28T08:41:07;51.50;;;16.40;;
5121;SDS011;2563;52.242;7.956;2024-02-28T08:43:41;48.87;;;15.87;;
5121;SDS011;2563;52.242;7.956;2024-02-28T08:46:07;48.67;;;15.20;;
5121;SDS011;2563;52.242;7.956;2024-02-28T08:48:32;42.70;;;15.23;;
5121;SDS011;2563;52.242;7.956;2024-02-28T08:50:58;58.37;;;15.67;;
5121;SDS011;2563;52.242;7.956;2024-02-28T08:53:24;42.00;;;14.57;;
5121;SDS011;2563;52.242;7.956;2024-02-28T08:55:49;43.60;;;15.53;;
5121;SDS011;2563;52.242;7.956;2024-02-28T08:58:14;48.90;;;15.50;;
5121;SDS011;2563;52.242;7.956;2024-02-28T09:00:40;44.67;;;15.00;;
5121;SDS011;2563;52.242;7.956;2024-02-28T09:03:05;48.70;;;15.00;;
5121;SDS011;2563;52.242;7.956;2024-02-28T09:05:30;44.30;;;15.93;;
5121;SDS011;2563;52.242;7.956;2024-02-28T09:07:56;43.30;;;15.40;;
5121;SDS011;2563;52.242;7.956;2024-02-28T09:10:22;42.17;;;15.40;;
5121;SDS011;2563;52.242;7.956;2024-02-28T09:12:51;46.87;;;15.60;;
5121;SDS011;2563;52.242;7.956;2024-02-28T09:15:17;51.43;;;15.37;;
5121;SDS011;2563;52.242;7.956;2024-02-28T09:17:43;43.37;;;15.20;;
5121;SDS011;2563;52.242;7.956;2024-02-28T09:20:08;44.30;;;14.70;;
5121;SDS011;2563;52.242;7.956;2024-02-28T09:22:34;46.30;;;15.90;;
5121;SDS011;2563;52.242;7.956;2024-02-28T09:25:00;57.43;;;17.03;;
5121;SDS011;2563;52.242;7.956;2024-02-28T09:27:28;51.43;;;16.83;;
5121;SDS011;2563;52.242;7.956;2024-02-28T09:29:54;47.53;;;15.33;;
5121;SDS011;2563;52.242;7.956;2024-02-28T09:32:19;43.67;;;17.30;;
5121;SDS011;2563;52.242;7.956;2024-02-28T09:34:45;39.67;;;16.00;;
5121;SDS011;2563;52.242;7.956;2024-02-28T09:37:10;51.20;;;17.50;;
5121;SDS011;2563;52.242;7.956;2024-02-28T09:39:39;47.77;;;15.87;;
5121;SDS011;2563;52.242;7.956;2024-02-28T09:42:07;54.10;;;17.07;;
5121;SDS011;2563;52.242;7.956;2024-02-28T09:44:36;46.40;;;17.07;;
5121;SDS011;2563;52.242;7.956;2024-02-28T09:47:02;59.23;;;17.40;;
5121;SDS011;2563;52.242;7.956;2024-02-28T09:49:28;39.47;;;15.57;;
5121;SDS011;2563;52.242;7.956;2024-02-28T09:51:56;55.30;;;16.07;;
5121;SDS011;2563;52.242;7.956;2024-02-28T09:54:23;44.80;;;16.57;;
5121;SDS011;2563;52.242;7.956;2024-02-28T09:56:48;51.50;;;18.00;;
5121;SDS011;2563;52.242;7.956;2024-02-28T09:59:15;52.20;;;18.57;;
5121;SDS011;2563;52.242;7.956;2024-02-28T10:01:43;54.83;;;18.73;;
5121;SDS011;2563;52.242;7.956;2024-02-28T10:04:12;51.93;;;19.83;;
5121;SDS011;2563;52.242;7.956;2024-02-28T10:06:41;61.10;;;21.00;;
5121;SDS011;2563;52.242;7.956;2024-02-28T10:09:06;57.17;;;20.27;;
5121;SDS011;2563;52.242;7.956;2024-02-28T10:11:32;59.90;;;22.43;;
5121;SDS011;2563;52.242;7.956;2024-02-28T10:14:00;58.73;;;18.60;;
5121;SDS011;2563;52.242;7.956;2024-02-28T10:16:26;57.47;;;18.73;;
5121;SDS011;2563;52.242;7.956;2024-02-28T10:18:52;54.80;;;19.27;;
5121;SDS011;2563;52.242;7.956;2024-02-28T10:21:18;55.37;;;17.97;;
5121;SDS011;2563;52.242;7.956;2024-02-28T10:23:44;49.13;;;17.50;;
5121;SDS011;2563;52.242;7.956;2024-02-28T10:26:10;55.10;;;16.97;;
5121;SDS011;2563;52.242;7.956;2024-02-28T10:28:37;54.80;;;18.10;;
5121;SDS011;2563;52.242;7.956;2024-02-28T10:31:04;48.10;;;16.40;;
5121;SDS011;2563;52.242;7.956;2024-02-28T10:33:30;53.37;;;18.03;;
5121;SDS011;2563;52.242;7.956;2024-02-28T10:35:58;56.40;;;19.47;;
5121;SDS011;2563;52.242;7.956;2024-02-28T10:38:24;55.93;;;18.53;;
5121;SDS011;2563;52.242;7.956;2024-02-28T10:40:52;50.50;;;18.97;;
5121;SDS011;2563;52.242;7.956;2024-02-28T10:43:18;57.70;;;17.60;;
5121;SDS011;2563;52.242;7.956;2024-02-28T10:45:45;59.53;;;17.20;;
5121;SDS011;2563;52.242;7.956;2024-02-28T10:48:11;54.17;;;19.37;;
5121;SDS011;2563;52.242;7.956;2024-02-28T10:50:39;58.83;;;20.07;;
5121;SDS011;2563;52.242;7.956;2024-02-28T10:53:07;63.50;;;19.07;;
5121;SDS011;2563;52.242;7.956;2024-02-28T10:55:40;72.37;;;26.00;;
5121;SDS011;2563;52.242;7.956;2024-02-28T10:58:06;96.40;;;34.13;;
5121;SDS011;2563;52.242;7.956;2024-02-28T11:00:33;110.47;;;37.00;;
5121;SDS011;2563;52.242;7.956;2024-02-28T11:03:00;88.17;;;31.97;;
5121;SDS011;2563;52.242;7.956;2024-02-28T11:08:04;61.23;;;20.93;;
5121;SDS011;2563;52.242;7.956;2024-02-28T11:10:33;57.30;;;18.47;;
5121;SDS011;2563;52.242;7.956;2024-02-28T11:12:59;61.80;;;19.07;;
5121;SDS011;2563;52.242;7.956;2024-02-28T11:15:24;57.03;;;20.53;;
5121;SDS011;2563;52.242;7.956;2024-02-28T11:17:53;59.53;;;19.37;;
5121;SDS011;2563;52.242;7.956;2024-02-28T11:20:19;68.57;;;20.73;;
5121;SDS011;2563;52.242;7.956;2024-02-28T11:22:45;65.00;;;21.63;;
5121;SDS011;2563;52.242;7.956;2024-02-28T11:25:10;69.00;;;22.67;;
5121;SDS011;2563;52.242;7.956;2024-02-28T11:27:48;66.03;;;20.60;;
5121;SDS011;2563;52.242;7.956;2024-02-28T11:30:14;79.17;;;27.10;;
5121;SDS011;2563;52.242;7.956;2024-02-28T11:32:40;64.80;;;23.37;;
5121;SDS011;2563;52.242;7.956;2024-02-28T11:35:06;61.20;;;20.00;;
5121;SDS011;2563;52.242;7.956;2024-02-28T11:37:31;58.73;;;19.73;;
5121;SDS011;2563;52.242;7.956;2024-02-28T11:39:57;70.17;;;20.90;;
5121;SDS011;2563;52.242;7.956;2024-02-28T11:42:23;63.27;;;20.20;;
5121;SDS011;2563;52.242;7.956;2024-02-28T11:44:55;56.63;;;17.40;;
5121;SDS011;2563;52.242;7.956;2024-02-28T11:47:22;65.20;;;19.63;;
5121;SDS011;2563;52.242;7.956;2024-02-28T11:49:48;65.67;;;21.83;;
5121;SDS011;2563;52.242;7.956;2024-02-28T11:52:14;59.10;;;19.73;;
5121;SDS011;2563;52.242;7.956;2024-02-28T11:54:39;59.10;;;18.80;;
5121;SDS011;2563;52.242;7.956;2024-02-28T11:57:04;73.17;;;20.60;;
5121;SDS011;2563;52.242;7.956;2024-02-28T11:59:32;63.93;;;20.50;;
5121;SDS011;2563;52.242;7.956;2024-02-28T12:01:57;69.10;;;23.10;;
5121;SDS011;2563;52.242;7.956;2024-02-28T12:04:25;62.70;;;19.50;;
5121;SDS011;2563;52.242;7.956;2024-02-28T12:06:51;61.70;;;19.10;;
5121;SDS011;2563;52.242;7.956;2024-02-28T12:09:16;58.90;;;20.57;;
5121;SDS011;2563;52.242;7.956;2024-02-28T12:11:43;59.67;;;19.33;;
5121;SDS011;2563;52.242;7.956;2024-02-28T12:14:09;55.70;;;19.30;;
5121;SDS011;2563;52.242;7.956;2024-02-28T12:16:38;71.33;;;21.33;;
5121;SDS011;2563;52.242;7.956;2024-02-28T12:19:08;61.67;;;19.57;;
5121;SDS011;2563;52.242;7.956;2024-02-28T12:21:35;59.37;;;20.00;;
5121;SDS011;2563;52.242;7.956;2024-02-28T12:24:01;63.33;;;20.10;;
5121;SDS011;2563;52.242;7.956;2024-02-28T12:26:27;68.43;;;20.80;;
5121;SDS011;2563;52.242;7.956;2024-02-28T12:28:52;56.60;;;19.03;;
5121;SDS011;2563;52.242;7.956;2024-02-28T12:31:17;67.67;;;20.40;;
5121;SDS011;2563;52.242;7.956;2024-02-28T12:33:43;67.37;;;22.10;;
5121;SDS011;2563;52.242;7.956;2024-02-28T12:36:09;60.90;;;20.47;;
5121;SDS011;2563;52.242;7.956;2024-02-28T12:38:35;56.03;;;19.47;;
5121;SDS011;2563;52.242;7.956;2024-02-28T12:41:00;59.30;;;20.50;;
5121;SDS011;2563;52.242;7.956;2024-02-28T12:43:27;68.80;;;21.33;;
5121;SDS011;2563;52.242;7.956;2024-02-28T12:45:52;56.47;;;19.67;;
5121;SDS011;2563;52.242;7.956;2024-02-28T12:48:18;70.23;;;23.50;;
5121;SDS011;2563;52.242;7.956;2024-02-28T12:50:43;70.30;;;22.87;;
5121;SDS011;2563;52.242;7.956;2024-02-28T12:53:09;61.70;;;20.80;;
5121;SDS011;2563;52.242;7.956;2024-02-28T12:55:34;51.47;;;20.13;;
5121;SDS011;2563;52.242;7.956;2024-02-28T12:57:59;61.70;;;21.13;;
5121;SDS011;2563;52.242;7.956;2024-02-28T13:00:29;58.90;;;22.03;;
5121;SDS011;2563;52.242;7.956;2024-02-28T13:02:54;53.57;;;20.77;;
5121;SDS011;2563;52.242;7.956;2024-02-28T13:05:20;50.47;;;19.93;;
5121;SDS011;2563;52.242;7.956;2024-02-28T13:07:46;53.87;;;22.50;;
5121;SDS011;2563;52.242;7.956;2024-02-28T13:10:11;55.67;;;19.97;;
5121;SDS011;2563;52.242;7.956;2024-02-28T13:12:37;51.77;;;19.30;;
5121;SDS011;2563;52.242;7.956;2024-02-28T13:15:03;60.93;;;21.67;;
5121;SDS011;2563;52.242;7.956;2024-02-28T13:17:30;54.37;;;20.03;;
5121;SDS011;2563;52.242;7.956;2024-02-28T13:19:55;57.67;;;21.63;;
5121;SDS011;2563;52.242;7.956;2024-02-28T13:22:21;58.43;;;23.07;;
5121;SDS011;2563;52.242;7.956;2024-02-28T13:24:46;54.87;;;20.67;;
5121;SDS011;2563;52.242;7.956;2024-02-28T13:27:11;49.83;;;20.93;;
5121;SDS011;2563;52.242;7.956;2024-02-28T13:29:37;48.83;;;20.57;;
5121;SDS011;2563;52.242;7.956;2024-02-28T13:32:02;55.83;;;21.07;;
5121;SDS011;2563;52.242;7.956;2024-02-28T13:34:28;55.53;;;22.20;;
5121;SDS011;2563;52.242;7.956;2024-02-28T13:36:54;57.20;;;22.00;;
5121;SDS011;2563;52.242;7.956;2024-02-28T13:39:20;65.33;;;23.70;;
5121;SDS011;2563;52.242;7.956;2024-02-28T13:41:48;57.80;;;23.33;;
5121;SDS011;2563;52.242;7.956;2024-02-28T13:44:16;56.13;;;21.07;;
5121;SDS011;2563;52.242;7.956;2024-02-28T13:46:43;58.50;;;22.63;;
5121;SDS011;2563;52.242;7.956;2024-02-28T13:49:08;59.43;;;21.90;;
5121;SDS011;2563;52.242;7.956;2024-02-28T13:51:34;55.93;;;21.10;;
5121;SDS011;2563;52.242;7.956;2024-02-28T13:53:59;63.67;;;21.90;;
5121;SDS011;2563;52.242;7.956;2024-02-28T13:56:24;65.80;;;23.40;;
5121;SDS011;2563;52.242;7.956;2024-02-28T13:58:50;60.03;;;23.37;;
5121;SDS011;2563;52.242;7.956;2024-02-28T14:01:15;55.33;;;20.97;;
5121;SDS011;2563;52.242;7.956;2024-02-28T14:03:41;55.10;;;20.47;;
5121;SDS011;2563;52.242;7.956;2024-02-28T14:06:06;62.50;;;22.20;;
5121;SDS011;2563;52.242;7.956;2024-02-28T14:08:31;64.97;;;21.90;;
5121;SDS011;2563;52.242;7.956;2024-02-28T14:10:57;69.80;;;23.67;;
5121;SDS011;2563;52.242;7.956;2024-02-28T14:13:23;56.80;;;22.03;;
5121;SDS011;2563;52.242;7.956;2024-02-28T14:15:49;75.00;;;28.83;;
5121;SDS011;2563;52.242;7.956;2024-02-28T14:18:16;61.80;;;24.07;;
5121;SDS011;2563;52.242;7.956;2024-02-28T14:20:42;62.00;;;23.47;;
5121;SDS011;2563;52.242;7.956;2024-02-28T14:23:08;64.10;;;23.00;;
5121;SDS011;2563;52.242;7.956;2024-02-28T14:25:33;59.20;;;23.73;;
5121;SDS011;2563;52.242;7.956;2024-02-28T14:27:59;58.00;;;21.90;;
5121;SDS011;2563;52.242;7.956;2024-02-28T14:30:24;69.60;;;23.80;;
5121;SDS011;2563;52.242;7.956;2024-02-28T14:32:49;61.87;;;23.20;;
5121;SDS011;2563;52.242;7.956;2024-02-28T14:35:15;60.37;;;22.63;;
5121;SDS011;2563;52.242;7.956;2024-02-28T14:37:41;61.10;;;24.00;;
5121;SDS011;2563;52.242;7.956;2024-02-28T14:40:07;59.87;;;22.77;;
5121;SDS011;2563;52.242;7.956;2024-02-28T14:42:39;68.77;;;26.60;;